Time;durP1;ratioP1;P1;durP2;ratioP2;P2;SDS_P1;SDS_P2;PMS_P1;PMS_P2;Temp;Humidity;BMP_temperature;BMP_pressure;BME280_temperature;BME280_humidity;BME280_pressure;Samples;Min_cycle;Max_cycle;Signal;HPM_P1;HPM_P2
2023/06/07 00:00:06;;;;;;;10.80;5.70;;;;;;;19.11;40.02;100262.67;104752;1257;95836;-82
2023/06/07 00:03:00;;;;;;;11.00;5.90;;;;;;;19.06;40.07;100267.27;104575;1253;141817;-82
2023/06/07 00:05:31;;;;;;;12.00;5.70;;;;;;;19.01;40.12;100263.46;104694;1253;95929;-81
2023/06/07 00:07:58;;;;;;;10.60;5.30;;;;;;;18.99;40.15;100265.56;104673;1253;110441;-82
2023/06/07 00:10:25;;;;;;;11.30;5.90;;;;;;;18.96;40.21;100261.35;104602;1253;137970;-82
2023/06/07 00:12:53;;;;;;;10.20;5.60;;;;;;;18.94;40.10;100258.83;104761;1253;97057;-82
2023/06/07 00:15:20;;;;;;;9.90;5.50;;;;;;;18.92;40.17;100254.23;104392;1257;139538;-82
2023/06/07 00:17:47;;;;;;;11.60;5.70;;;;;;;18.89;40.24;100262.72;104727;1253;95863;-82
2023/06/07 00:20:15;;;;;;;9.60;5.20;;;;;;;18.85;40.32;100256.98;104668;1253;111426;-81
2023/06/07 00:22:43;;;;;;;13.20;5.50;;;;;;;18.81;40.39;100257.08;104555;1253;108132;-81
2023/06/07 00:25:11;;;;;;;8.60;5.60;;;;;;;18.76;40.44;100254.41;104726;1257;96046;-82
2023/06/07 00:27:38;;;;;;;11.70;6.00;;;;;;;18.72;40.67;100254.50;104591;1257;137899;-82
2023/06/07 00:30:08;;;;;;;10.00;5.60;;;;;;;18.68;40.70;100258.45;104542;1253;96171;-83
2023/06/07 00:32:35;;;;;;;10.80;5.90;;;;;;;18.65;40.77;100259.14;104617;1253;137869;-82
2023/06/07 00:35:02;;;;;;;13.50;6.30;;;;;;;18.62;40.92;100259.34;104675;1253;107495;-81
2023/06/07 00:37:30;;;;;;;11.00;5.80;;;;;;;18.59;41.06;100253.55;104680;1254;95929;-81
2023/06/07 00:39:58;;;;;;;11.30;5.60;;;;;;;18.57;41.07;100254.05;104565;1253;137789;-81
2023/06/07 00:42:25;;;;;;;13.20;5.80;;;;;;;18.53;41.00;100252.05;104470;1253;95881;-80
2023/06/07 00:44:52;;;;;;;13.40;5.90;;;;;;;18.49;41.21;100249.45;104285;1254;294196;-80
2023/06/07 00:47:20;;;;;;;10.60;5.60;;;;;;;18.48;41.46;100247.23;104698;1253;108480;-81
2023/06/07 00:49:48;;;;;;;15.10;5.80;;;;;;;18.46;41.34;100245.59;104725;1254;96049;-81
2023/06/07 00:52:15;;;;;;;13.30;6.00;;;;;;;18.45;41.44;100240.93;104355;1256;138814;-81
2023/06/07 00:54:43;;;;;;;13.70;5.80;;;;;;;18.43;41.40;100244.73;104667;1255;96112;-81
2023/06/07 00:57:13;;;;;;;9.50;5.80;;;;;;;18.39;41.64;100242.15;104623;1253;138481;-80
2023/06/07 00:59:41;;;;;;;13.70;5.80;;;;;;;18.36;41.69;100242.02;104471;1254;108270;-81
2023/06/07 01:02:08;;;;;;;10.40;5.80;;;;;;;18.33;41.69;100241.50;104619;1258;95935;-82
2023/06/07 01:05:17;;;;;;;10.20;5.80;;;;;;;18.32;41.90;100238.26;104533;1253;138045;-81
2023/06/07 01:07:48;;;;;;;11.10;5.70;;;;;;;18.29;41.92;100238.96;104672;1254;95848;-82
2023/06/07 01:10:16;;;;;;;13.20;5.70;;;;;;;18.26;42.00;100238.09;104548;1253;137700;-81
2023/06/07 01:12:44;;;;;;;9.50;6.00;;;;;;;18.23;41.97;100236.72;104688;1253;107307;-81
2023/06/07 01:15:13;;;;;;;12.90;5.90;;;;;;;18.21;41.95;100239.46;104608;1254;137825;-80
2023/06/07 01:17:44;;;;;;;12.20;6.10;;;;;;;18.20;42.05;100240.09;104713;1254;108167;-82
2023/06/07 01:20:14;;;;;;;9.20;5.90;;;;;;;18.18;41.91;100236.56;104682;1258;96030;-81
2023/06/07 01:22:45;;;;;;;11.40;5.30;;;;;;;18.16;41.72;100236.15;104576;1257;137386;-81
2023/06/07 01:25:13;;;;;;;11.00;5.40;;;;;;;18.11;41.79;100234.60;104619;1254;107519;-81
2023/06/07 01:27:43;;;;;;;11.30;6.00;;;;;;;18.09;41.68;100231.09;104570;1254;138061;-82
2023/06/07 01:30:14;;;;;;;9.30;6.10;;;;;;;18.06;41.71;100230.40;104664;1254;107485;-80
2023/06/07 01:32:43;;;;;;;8.40;5.90;;;;;;;18.02;41.67;100233.11;104569;1257;137966;-80
2023/06/07 01:35:12;;;;;;;13.40;6.20;;;;;;;18.00;41.93;100230.27;104433;1259;111308;-80
2023/06/07 01:37:40;;;;;;;10.50;6.00;;;;;;;17.99;42.15;100232.11;104659;1254;108544;-80
2023/06/07 01:40:10;;;;;;;14.80;5.50;;;;;;;17.97;42.43;100234.86;104588;1253;138599;-81
2023/06/07 01:42:37;;;;;;;11.40;6.30;;;;;;;17.95;42.55;100231.63;104702;1259;108714;-80
2023/06/07 01:45:07;;;;;;;9.30;6.80;;;;;;;17.93;42.84;100237.39;104365;1259;138223;-80
2023/06/07 01:47:34;;;;;;;14.40;7.20;;;;;;;17.90;43.07;100229.82;104737;1254;110578;-81
2023/06/07 01:50:01;;;;;;;19.80;7.10;;;;;;;17.86;43.21;100230.48;104684;1254;107959;-80
2023/06/07 01:52:29;;;;;;;13.10;6.90;;;;;;;17.80;43.43;100231.84;104615;1259;137931;-80
2023/06/07 01:54:57;;;;;;;12.10;6.80;;;;;;;17.76;43.55;100230.67;104730;1254;108108;-81
2023/06/07 01:57:34;;;;;;;13.20;7.00;;;;;;;17.72;43.85;100233.27;104598;1253;138116;-80
2023/06/07 02:00:12;;;;;;;12.90;6.60;;;;;;;17.67;43.95;100235.16;104498;1254;110805;-80
2023/06/07 02:02:47;;;;;;;15.50;7.50;;;;;;;17.61;44.11;100235.67;104533;1253;138107;-81
2023/06/07 02:05:20;;;;;;;13.70;7.40;;;;;;;17.57;44.28;100235.89;104757;1253;95849;-81
2023/06/07 02:07:51;;;;;;;15.50;7.00;;;;;;;17.52;44.30;100231.40;104675;1253;107988;-82
2023/06/07 02:10:21;;;;;;;16.60;8.30;;;;;;;17.47;44.34;100233.89;104353;1254;138351;-81
2023/06/07 02:12:50;;;;;;;19.80;11.20;;;;;;;17.40;44.43;100231.47;104630;1255;112100;-81
2023/06/07 02:15:18;;;;;;;13.60;7.50;;;;;;;17.33;44.57;100229.60;104528;1256;138712;-80
2023/06/07 02:17:57;;;;;;;14.70;8.10;;;;;;;17.28;44.84;100228.55;104697;1255;95910;-80
2023/06/07 02:20:26;;;;;;;15.10;6.90;;;;;;;17.23;44.89;100224.60;104611;1254;138398;-80
2023/06/07 02:22:54;;;;;;;16.00;7.10;;;;;;;17.18;45.07;100223.88;104699;1254;96142;-81
2023/06/07 02:25:21;;;;;;;17.50;7.90;;;;;;;17.16;45.04;100225.20;104705;1253;111379;-80
2023/06/07 02:27:49;;;;;;;17.50;8.10;;;;;;;17.14;45.19;100222.33;104541;1258;138057;-80
2023/06/07 02:30:16;;;;;;;13.80;8.00;;;;;;;17.11;45.10;100224.12;104710;1257;95905;-80
2023/06/07 02:32:45;;;;;;;16.30;8.00;;;;;;;17.09;45.20;100227.88;104528;1258;139412;-80
2023/06/07 02:35:13;;;;;;;17.20;7.90;;;;;;;17.09;45.21;100225.29;104707;1254;96146;-80
2023/06/07 02:37:40;;;;;;;14.30;8.00;;;;;;;17.08;45.51;100223.20;104725;1253;111897;-80
2023/06/07 02:40:10;;;;;;;14.10;7.40;;;;;;;17.06;45.50;100224.76;104573;1255;138171;-80
2023/06/07 02:42:37;;;;;;;17.80;8.50;;;;;;;17.06;45.68;100222.66;104455;1260;95989;-80
2023/06/07 02:45:05;;;;;;;14.90;8.10;;;;;;;17.04;45.67;100223.48;104601;1254;138147;-81
2023/06/07 02:47:32;;;;;;;22.60;8.20;;;;;;;17.01;45.85;100225.19;104691;1253;95662;-81
2023/06/07 02:50:00;;;;;;;15.20;7.90;;;;;;;16.98;45.98;100225.73;104510;1254;111258;-81
2023/06/07 02:52:29;;;;;;;17.80;10.50;;;;;;;16.97;46.02;100224.63;104378;1260;138267;-81
2023/06/07 02:54:57;;;;;;;17.10;7.70;;;;;;;16.94;46.18;100225.45;104537;1254;95999;-80
2023/06/07 02:57:24;;;;;;;18.20;7.90;;;;;;;16.94;46.29;100225.68;104558;1258;138452;-81
2023/06/07 02:59:52;;;;;;;21.00;8.30;;;;;;;16.96;46.45;100228.18;104528;1253;96056;-81
2023/06/07 03:02:23;;;;;;;14.40;7.60;;;;;;;16.97;46.46;100228.09;104602;1254;138644;-79
2023/06/07 03:04:51;;;;;;;12.60;7.50;;;;;;;16.99;46.44;100228.67;104460;1258;108097;-82
2023/06/07 03:07:20;;;;;;;15.20;7.70;;;;;;;17.00;46.50;100231.27;104460;1260;95986;-82
2023/06/07 03:09:48;;;;;;;18.30;7.70;;;;;;;17.02;46.46;100235.14;104349;1257;138578;-81
2023/06/07 03:12:17;;;;;;;18.90;8.00;;;;;;;17.04;46.50;100234.70;104502;1254;96003;-81
2023/06/07 03:14:48;;;;;;;17.10;6.90;;;;;;;17.05;46.60;100234.81;104418;1254;138242;-81
2023/06/07 03:17:17;;;;;;;13.50;7.90;;;;;;;17.05;46.44;100234.30;104473;1258;107472;-81
2023/06/07 03:19:48;;;;;;;12.40;7.10;;;;;;;17.03;46.49;100231.23;104645;1256;96019;-81
2023/06/07 03:22:16;;;;;;;15.30;7.50;;;;;;;17.04;46.57;100233.79;104604;1259;137820;-80
2023/06/07 03:24:44;;;;;;;16.40;7.70;;;;;;;17.04;46.64;100235.05;104469;1254;97602;-80
2023/06/07 03:27:13;;;;;;;16.10;7.30;;;;;;;17.05;46.73;100239.20;104398;1260;138389;-82
2023/06/07 03:29:40;;;;;;;12.40;6.90;;;;;;;17.08;46.70;100240.42;104491;1259;106766;-81
2023/06/07 03:32:09;;;;;;;13.00;6.80;;;;;;;17.14;46.59;100237.99;104681;1254;95936;-82
2023/06/07 03:34:37;;;;;;;13.70;7.30;;;;;;;17.18;46.65;100234.23;104283;1262;137690;-82
2023/06/07 03:37:05;;;;;;;17.30;7.40;;;;;;;17.22;46.56;100233.63;104606;1255;96229;-82
2023/06/07 03:39:33;;;;;;;13.80;7.20;;;;;;;17.25;46.47;100237.68;104502;1254;138678;-82
2023/06/07 03:42:00;;;;;;;11.30;6.70;;;;;;;17.28;46.46;100240.15;104687;1254;107567;-81
2023/06/07 03:44:28;;;;;;;11.90;7.00;;;;;;;17.33;46.28;100239.46;104389;1254;138617;-81
2023/06/07 03:46:55;;;;;;;18.50;7.50;;;;;;;17.38;46.28;100244.59;104647;1254;107376;-81
2023/06/07 03:49:23;;;;;;;10.40;6.40;;;;;;;17.40;46.23;100245.16;104693;1254;95936;-82
2023/06/07 03:51:51;;;;;;;14.60;6.80;;;;;;;17.45;46.24;100245.95;104377;1254;138322;-81
2023/06/07 03:54:18;;;;;;;17.30;9.00;;;;;;;17.48;46.13;100246.98;104419;1253;107610;-80
2023/06/07 03:56:46;;;;;;;11.90;6.10;;;;;;;17.51;46.02;100245.02;104390;1255;138131;-81
2023/06/07 03:59:15;;;;;;;18.20;7.40;;;;;;;17.56;46.03;100242.29;104675;1254;107602;-80
2023/06/07 04:01:42;;;;;;;14.60;6.50;;;;;;;17.61;46.01;100243.77;104469;1254;96102;-80
2023/06/07 04:04:10;;;;;;;15.30;6.80;;;;;;;17.67;45.96;100242.85;104499;1259;137870;-80
2023/06/07 04:06:39;;;;;;;12.20;6.30;;;;;;;17.75;46.09;100244.48;104427;1254;105771;-82
2023/06/07 04:09:08;;;;;;;15.20;5.90;;;;;;;17.84;45.85;100244.08;104503;1254;138065;-81
2023/06/07 04:11:35;;;;;;;11.50;5.40;;;;;;;17.93;45.94;100243.02;104688;1254;106917;-82
2023/06/07 04:14:03;;;;;;;9.50;5.40;;;;;;;18.01;45.53;100239.50;104740;1254;95726;-81
2023/06/07 04:16:31;;;;;;;11.60;5.30;;;;;;;18.08;45.34;100235.16;104452;1254;137645;-81
2023/06/07 04:18:58;;;;;;;12.40;5.60;;;;;;;18.16;45.48;100234.17;104465;1254;106449;-81
2023/06/07 04:21:30;;;;;;;14.30;5.70;;;;;;;18.26;45.45;100233.88;104432;1254;139264;-81
2023/06/07 04:23:58;;;;;;;12.80;5.80;;;;;;;18.35;45.34;100233.11;104515;1254;107326;-81
2023/06/07 04:26:25;;;;;;;11.70;5.50;;;;;;;18.44;45.11;100233.94;104332;1254;138801;-80
2023/06/07 04:28:56;;;;;;;14.70;5.50;;;;;;;18.53;45.05;100236.18;104502;1254;111397;-81
2023/06/07 04:31:29;;;;;;;12.90;5.50;;;;;;;18.64;45.09;100238.23;104453;1254;107748;-81
2023/06/07 04:34:01;;;;;;;16.10;6.50;;;;;;;18.76;44.70;100237.13;104399;1254;138710;-80
2023/06/07 04:36:30;;;;;;;11.40;5.00;;;;;;;18.86;44.76;100234.36;104512;1254;107557;-80
2023/06/07 04:39:00;;;;;;;11.50;5.40;;;;;;;18.99;44.75;100238.95;104432;1254;138330;-81
2023/06/07 04:41:32;;;;;;;11.40;5.40;;;;;;;19.11;44.65;100235.30;104528;1254;112709;-81
2023/06/07 04:44:03;;;;;;;15.60;5.70;;;;;;;19.24;44.41;100234.05;104483;1258;108107;-82
2023/06/07 04:46:34;;;;;;;15.90;6.40;;;;;;;19.35;44.43;100231.02;104603;1253;137772;-81
2023/06/07 04:49:02;;;;;;;14.10;5.40;;;;;;;19.44;44.37;100234.70;104573;1254;106198;-80
2023/06/07 04:51:30;;;;;;;13.20;5.70;;;;;;;19.54;44.58;100232.88;104584;1254;138055;-81
2023/06/07 04:53:58;;;;;;;14.50;5.80;;;;;;;19.66;44.25;100236.45;104470;1254;111999;-81
2023/06/07 04:56:27;;;;;;;16.20;5.80;;;;;;;19.80;43.96;100236.57;104557;1257;138031;-81
2023/06/07 04:58:56;;;;;;;17.80;5.60;;;;;;;19.96;43.80;100242.71;104539;1260;96498;-81
2023/06/07 05:01:25;;;;;;;11.10;5.20;;;;;;;20.10;43.61;100235.14;104437;1254;106281;-82
2023/06/07 05:04:01;;;;;;;13.00;5.10;;;;;;;20.24;43.31;100239.19;104337;1254;137989;-81
2023/06/07 05:06:37;;;;;;;12.70;5.40;;;;;;;20.43;42.69;100236.42;104474;1254;111616;-82
2023/06/07 05:09:06;;;;;;;14.30;5.00;;;;;;;20.60;42.18;100230.07;104367;1254;139286;-82
2023/06/07 05:11:34;;;;;;;10.50;5.60;;;;;;;20.79;42.17;100233.41;104563;1254;96033;-81
2023/06/07 05:14:01;;;;;;;19.20;5.30;;;;;;;20.99;41.71;100236.31;104508;1254;107752;-82
2023/06/07 05:16:32;;;;;;;8.70;4.60;;;;;;;21.20;41.17;100236.84;104346;1254;138704;-82
2023/06/07 05:19:00;;;;;;;11.10;4.20;;;;;;;21.45;40.73;100238.48;104672;1254;111811;-83
2023/06/07 05:21:28;;;;;;;9.70;4.70;;;;;;;21.75;40.47;100234.91;104284;1256;138894;-82
2023/06/07 05:23:56;;;;;;;7.70;4.70;;;;;;;22.06;40.27;100235.65;104647;1254;95958;-82
2023/06/07 05:26:25;;;;;;;12.50;4.30;;;;;;;22.39;40.26;100232.43;104421;1255;137771;-83
2023/06/07 05:28:52;;;;;;;12.00;5.00;;;;;;;22.75;39.75;100235.51;104644;1254;96243;-80
2023/06/07 05:31:20;;;;;;;18.90;5.20;;;;;;;23.07;39.23;100234.26;104563;1254;111572;-81
2023/06/07 05:33:48;;;;;;;14.90;4.90;;;;;;;23.36;38.39;100237.75;104332;1254;137994;-82
2023/06/07 05:36:16;;;;;;;12.40;4.80;;;;;;;23.63;37.55;100237.14;104662;1254;95770;-82
2023/06/07 05:38:45;;;;;;;17.10;4.80;;;;;;;23.88;37.13;100236.87;104351;1254;138598;-82
2023/06/07 05:41:12;;;;;;;14.80;4.80;;;;;;;24.17;36.86;100237.49;104627;1254;96118;-82
2023/06/07 05:43:42;;;;;;;18.60;5.00;;;;;;;24.45;36.39;100232.11;104612;1254;110261;-82
2023/06/07 05:46:09;;;;;;;17.20;5.20;;;;;;;24.73;35.87;100237.05;104324;1254;137871;-84
2023/06/07 05:48:37;;;;;;;14.90;4.50;;;;;;;25.01;35.42;100238.90;104515;1254;96046;-85
2023/06/07 05:51:07;;;;;;;15.90;4.20;;;;;;;25.44;34.66;100239.71;104390;1254;138922;-84
2023/06/07 05:53:35;;;;;;;11.50;4.00;;;;;;;26.20;34.28;100236.64;104655;1254;95996;-84
2023/06/07 05:56:02;;;;;;;11.20;4.40;;;;;;;27.55;33.24;100232.13;104628;1254;110127;-83
2023/06/07 05:58:31;;;;;;;14.50;4.30;;;;;;;29.17;31.54;100227.72;104516;1253;139308;-83
2023/06/07 06:00:59;;;;;;;14.20;4.10;;;;;;;30.58;30.01;100226.67;104677;1254;96070;-84
2023/06/07 06:03:26;;;;;;;14.00;4.30;;;;;;;31.85;28.43;100224.52;104533;1254;138297;-83
2023/06/07 06:05:54;;;;;;;14.50;3.90;;;;;;;32.81;27.08;100217.20;104654;1254;95987;-84
2023/06/07 06:08:22;;;;;;;18.80;4.50;;;;;;;33.67;25.76;100222.04;104654;1254;111018;-82
2023/06/07 06:10:49;;;;;;;13.10;4.20;;;;;;;34.43;25.11;100219.73;104614;1253;100780;-84
2023/06/07 06:13:17;;;;;;;12.60;3.90;;;;;;;35.19;23.96;100216.33;104634;1253;95894;-84
2023/06/07 06:15:44;;;;;;;11.80;4.20;;;;;;;35.90;23.38;100220.95;104546;1254;138512;-86
2023/06/07 06:18:11;;;;;;;17.00;4.20;;;;;;;36.58;22.67;100220.91;104606;1254;95863;-85
2023/06/07 06:20:38;;;;;;;17.20;3.60;;;;;;;37.26;22.09;100217.38;104570;1254;139843;-85
2023/06/07 06:23:07;;;;;;;13.50;3.80;;;;;;;38.01;21.37;100218.63;104601;1254;97980;-81
2023/06/07 06:25:36;;;;;;;13.10;4.00;;;;;;;38.66;20.63;100216.23;104752;1254;95852;-83
2023/06/07 06:28:04;;;;;;;8.80;3.40;;;;;;;39.21;20.34;100213.89;104567;1254;137757;-84
2023/06/07 06:30:31;;;;;;;12.70;3.50;;;;;;;39.88;19.68;100216.69;104680;1254;95789;-83
2023/06/07 06:32:59;;;;;;;12.20;3.30;;;;;;;40.61;18.85;100213.66;104546;1254;138049;-85
2023/06/07 06:35:28;;;;;;;8.10;3.40;;;;;;;41.35;18.63;100216.09;104675;1254;99634;-84
2023/06/07 06:37:56;;;;;;;18.40;3.60;;;;;;;42.10;17.95;100220.92;104667;1253;95982;-85
2023/06/07 06:40:23;;;;;;;11.30;3.00;;;;;;;42.73;17.26;100221.30;104561;1254;137729;-85
2023/06/07 06:42:50;;;;;;;15.50;3.60;;;;;;;43.37;16.46;100217.07;104618;1254;95859;-84
2023/06/07 06:45:26;;;;;;;10.10;3.00;;;;;;;43.97;15.78;100218.73;104395;1254;138731;-85
2023/06/07 06:47:53;;;;;;;7.80;3.20;;;;;;;44.43;15.26;100212.11;104622;1254;100807;-85
2023/06/07 06:50:20;;;;;;;8.80;3.20;;;;;;;44.76;15.13;100210.66;104685;1253;95879;-83
2023/06/07 06:52:59;;;;;;;8.20;2.80;;;;;;;45.14;14.76;100212.45;104614;1253;100309;-82
2023/06/07 06:55:27;;;;;;;11.60;2.80;;;;;;;45.42;14.18;100210.47;104666;1254;95926;-84
2023/06/07 06:57:54;;;;;;;9.50;3.20;;;;;;;45.66;14.01;100213.59;104590;1254;138407;-85
2023/06/07 07:00:24;;;;;;;17.30;3.00;;;;;;;45.96;14.07;100214.95;104628;1253;100725;-84
2023/06/07 07:02:52;;;;;;;10.20;2.80;;;;;;;46.24;13.49;100214.35;104552;1253;137023;-86
2023/06/07 07:05:20;;;;;;;12.00;2.60;;;;;;;46.47;13.34;100216.30;104622;1254;100969;-85
2023/06/07 07:07:47;;;;;;;16.10;2.90;;;;;;;46.76;13.02;100216.48;104645;1253;95656;-85
2023/06/07 07:10:15;;;;;;;9.50;2.30;;;;;;;46.96;12.60;100215.45;104561;1253;138235;-86
2023/06/07 07:12:42;;;;;;;10.70;2.80;;;;;;;46.99;12.57;100212.07;104655;1253;100646;-86
2023/06/07 07:15:11;;;;;;;11.90;2.70;;;;;;;46.91;12.00;100214.58;104550;1253;138217;-86
2023/06/07 07:17:44;;;;;;;14.60;2.80;;;;;;;46.71;11.66;100214.02;104690;1253;100449;-86
2023/06/07 07:20:13;;;;;;;10.50;3.00;;;;;;;46.41;12.04;100218.51;104763;1253;95848;-86
2023/06/07 07:22:41;;;;;;;11.80;2.80;;;;;;;46.29;12.32;100219.34;104670;1253;136600;-86
2023/06/07 07:25:10;;;;;;;9.70;2.80;;;;;;;46.24;12.39;100220.30;104572;1253;100409;-84
2023/06/07 07:27:37;;;;;;;14.60;3.00;;;;;;;46.30;11.93;100221.42;104553;1253;137770;-84
2023/06/07 07:30:05;;;;;;;10.80;3.30;;;;;;;46.36;12.08;100214.83;104662;1253;99346;-86
2023/06/07 07:32:33;;;;;;;14.60;2.70;;;;;;;46.41;12.10;100214.42;104506;1253;138999;-86
2023/06/07 07:35:00;;;;;;;10.90;3.00;;;;;;;46.37;12.44;100212.73;104671;1254;112509;-87
2023/06/07 07:37:32;;;;;;;15.40;2.90;;;;;;;46.37;12.31;100212.23;104593;1253;98563;-85
2023/06/07 07:39:59;;;;;;;8.40;2.80;;;;;;;46.40;12.04;100215.04;104535;1254;138412;-87
2023/06/07 07:42:26;;;;;;;7.80;2.50;;;;;;;46.53;12.00;100216.33;104634;1254;100707;-85
2023/06/07 07:44:53;;;;;;;12.50;2.80;;;;;;;46.60;11.72;100212.66;104522;1254;138682;-84
2023/06/07 07:47:21;;;;;;;12.60;2.90;;;;;;;46.62;11.84;100213.70;104671;1253;102599;-87
2023/06/07 07:49:51;;;;;;;9.80;2.70;;;;;;;46.56;11.83;100209.62;104567;1254;99909;-85
2023/06/07 07:52:19;;;;;;;8.90;2.70;;;;;;;46.34;11.99;100210.05;104538;1253;137610;-86
2023/06/07 07:54:48;;;;;;;10.90;2.80;;;;;;;46.03;11.98;100212.42;104608;1254;100608;-86
2023/06/07 07:57:16;;;;;;;9.80;2.80;;;;;;;45.87;12.06;100210.19;104540;1253;137893;-86
2023/06/07 07:59:43;;;;;;;20.70;3.20;;;;;;;45.97;12.02;100214.67;104701;1253;103682;-85
2023/06/07 08:02:14;;;;;;;10.50;2.90;;;;;;;46.08;12.11;100216.49;104581;1253;100132;-87
2023/06/07 08:04:41;;;;;;;21.00;3.70;;;;;;;46.22;12.07;100215.30;104511;1253;137739;-84
2023/06/07 08:07:09;;;;;;;11.80;2.90;;;;;;;46.39;11.63;100213.59;104598;1253;100317;-85
2023/06/07 08:09:36;;;;;;;9.50;2.90;;;;;;;46.46;11.82;100214.16;104581;1253;138236;-84
2023/06/07 08:12:05;;;;;;;12.40;2.90;;;;;;;46.42;11.89;100215.25;104653;1253;103762;-84
2023/06/07 08:14:32;;;;;;;5.50;2.60;;;;;;;46.37;11.88;100212.90;104492;1253;138961;-83
2023/06/07 08:17:00;;;;;;;12.80;2.70;;;;;;;46.26;11.79;100213.02;104654;1253;95938;-83
2023/06/07 08:19:27;;;;;;;7.00;3.00;;;;;;;46.22;11.95;100211.57;104550;1253;100530;-84
2023/06/07 08:21:54;;;;;;;10.50;2.90;;;;;;;45.87;11.71;100210.80;104553;1253;139066;-84
2023/06/07 08:24:21;;;;;;;8.90;2.70;;;;;;;45.73;11.96;100214.05;104678;1253;104290;-85
2023/06/07 08:26:49;;;;;;;6.40;2.60;;;;;;;45.64;11.45;100215.86;104509;1253;138711;-83
2023/06/07 08:29:16;;;;;;;4.40;2.60;;;;;;;45.27;11.57;100211.98;104642;1253;95993;-85
2023/06/07 08:31:47;;;;;;;9.20;2.90;;;;;;;44.93;12.06;100211.27;104629;1253;100114;-86
2023/06/07 08:34:15;;;;;;;15.70;3.00;;;;;;;44.83;12.41;100209.20;104529;1257;137746;-86
2023/06/07 08:36:42;;;;;;;9.10;2.80;;;;;;;44.81;12.16;100208.89;104652;1253;102704;-86
2023/06/07 08:39:09;;;;;;;9.00;3.10;;;;;;;44.38;11.38;100207.31;104528;1253;137733;-86
2023/06/07 08:41:37;;;;;;;7.90;2.90;;;;;;;43.80;11.81;100207.58;104708;1254;96015;-83
2023/06/07 08:44:04;;;;;;;8.40;2.60;;;;;;;43.45;12.07;100206.30;104631;1253;99537;-87
2023/06/07 08:46:32;;;;;;;7.30;2.50;;;;;;;43.12;12.15;100203.94;104525;1253;137671;-85
2023/06/07 08:49:02;;;;;;;5.20;2.60;;;;;;;42.63;12.17;100199.33;104631;1253;102624;-86
2023/06/07 08:51:33;;;;;;;12.90;3.20;;;;;;;42.08;12.11;100200.02;104499;1254;137769;-85
2023/06/07 08:54:04;;;;;;;6.50;2.60;;;;;;;41.18;12.43;100200.17;104600;1253;95762;-87
2023/06/07 08:56:32;;;;;;;8.30;3.20;;;;;;;40.52;12.96;100198.97;104500;1253;138595;-88
2023/06/07 08:59:00;;;;;;;7.30;2.80;;;;;;;39.95;13.41;100199.60;104626;1253;96014;-87
2023/06/07 09:01:29;;;;;;;5.20;2.80;;;;;;;39.59;13.82;100199.44;104630;1253;102641;-87
2023/06/07 09:03:59;;;;;;;7.10;3.20;;;;;;;39.48;14.07;100198.00;104524;1253;138974;-86
2023/06/07 09:06:26;;;;;;;6.70;2.70;;;;;;;39.45;14.00;100196.41;104666;1254;96067;-88
2023/06/07 09:08:54;;;;;;;5.80;2.90;;;;;;;39.46;14.06;100196.64;104523;1253;137813;-88
2023/06/07 09:11:22;;;;;;;7.70;2.80;;;;;;;39.48;13.86;100203.56;104459;1254;95896;-87
2023/06/07 09:13:49;;;;;;;9.10;2.60;;;;;;;39.51;13.86;100201.14;104679;1253;103762;-87
2023/06/07 09:16:17;;;;;;;6.90;2.80;;;;;;;39.54;13.94;100201.88;104473;1253;138534;-87
2023/06/07 09:18:45;;;;;;;8.90;3.10;;;;;;;39.70;13.42;100195.45;104645;1253;95848;-86
2023/06/07 09:21:23;;;;;;;7.50;2.80;;;;;;;39.70;13.49;100195.65;104526;1253;137591;-88
2023/06/07 09:23:50;;;;;;;4.30;2.90;;;;;;;39.14;13.77;100198.44;104658;1253;95894;-89
2023/06/07 09:26:18;;;;;;;7.20;3.20;;;;;;;38.40;14.37;100205.27;104666;1253;103700;-88
2023/06/07 09:28:46;;;;;;;3.90;2.80;;;;;;;37.85;14.61;100202.91;104635;1256;108324;-87
2023/06/07 09:31:28;;;;;;;5.00;3.00;;;;;;;37.51;14.97;100204.79;104638;1256;95914;-89
2023/06/07 09:33:56;;;;;;;7.10;3.20;;;;;;;37.39;15.21;100200.77;104570;1253;137838;-87
2023/06/07 09:36:23;;;;;;;14.90;3.10;;;;;;;37.12;15.53;100198.67;104490;1253;95873;-87
2023/06/07 09:38:50;;;;;;;5.20;3.00;;;;;;;36.48;15.56;100204.21;104527;1253;138243;-86
2023/06/07 09:41:17;;;;;;;4.60;3.00;;;;;;;35.85;16.11;100202.85;104616;1253;99097;-85
2023/06/07 09:43:47;;;;;;;7.30;2.60;;;;;;;35.74;16.21;100205.39;104673;1253;97446;-86
2023/06/07 09:46:15;;;;;;;11.60;2.80;;;;;;;35.91;16.25;100207.35;104564;1253;137643;-86
2023/06/07 09:48:53;;;;;;;7.90;3.30;;;;;;;36.10;16.49;100202.43;104634;1253;95915;-86
2023/06/07 09:51:21;;;;;;;6.00;3.00;;;;;;;35.93;16.21;100203.88;104577;1253;137784;-86
2023/06/07 09:53:54;;;;;;;9.30;3.00;;;;;;;35.98;16.59;100196.46;104654;1254;100327;-87
2023/06/07 09:56:22;;;;;;;8.50;3.10;;;;;;;36.33;16.60;100186.77;104716;1253;96961;-86
2023/06/07 09:58:51;;;;;;;9.30;3.00;;;;;;;36.61;16.17;100189.80;104682;1253;101040;-86
2023/06/07 10:01:33;;;;;;;8.60;2.80;;;;;;;36.57;15.67;100189.83;104636;1253;95679;-87
2023/06/07 10:04:02;;;;;;;8.00;2.70;;;;;;;36.65;15.69;100188.73;104568;1253;138062;-85
2023/06/07 10:06:34;;;;;;;8.80;3.10;;;;;;;36.84;15.75;100190.35;104643;1253;99356;-86
2023/06/07 10:09:05;;;;;;;7.80;2.90;;;;;;;36.96;15.90;100190.24;104541;1253;137842;-85
2023/06/07 10:11:36;;;;;;;8.00;2.70;;;;;;;36.69;15.73;100189.28;104628;1253;100347;-84
2023/06/07 10:14:07;;;;;;;5.10;2.80;;;;;;;36.10;16.12;100185.42;104632;1253;96067;-85
2023/06/07 10:16:37;;;;;;;10.30;2.80;;;;;;;35.88;16.63;100180.89;104599;1253;137704;-88
2023/06/07 10:19:11;;;;;;;5.30;2.70;;;;;;;35.96;16.08;100181.90;104657;1257;100050;-82
2023/06/07 10:21:40;;;;;;;6.70;2.80;;;;;;;35.65;15.75;100181.55;104513;1254;138454;-86
2023/06/07 10:24:13;;;;;;;6.20;2.90;;;;;;;35.37;16.10;100178.94;104653;1253;99278;-86
2023/06/07 10:26:50;;;;;;;7.10;3.00;;;;;;;35.25;16.33;100179.21;104522;1256;138330;-87
2023/06/07 10:29:24;;;;;;;5.90;2.90;;;;;;;35.13;16.16;100178.27;104716;1253;103966;-88
2023/06/07 10:31:59;;;;;;;7.40;2.80;;;;;;;34.81;16.23;100180.25;104654;1253;100655;-88
2023/06/07 10:34:29;;;;;;;7.20;3.10;;;;;;;34.67;16.74;100178.42;104596;1253;138515;-87
2023/06/07 10:37:00;;;;;;;5.20;2.70;;;;;;;34.72;16.82;100177.42;104671;1253;101093;-88
2023/06/07 10:39:28;;;;;;;7.40;2.70;;;;;;;34.56;16.97;100172.20;104588;1253;138305;-89
2023/06/07 10:41:57;;;;;;;7.10;3.10;;;;;;;34.47;17.04;100172.70;104725;1253;102592;-86
2023/06/07 10:44:26;;;;;;;9.80;3.00;;;;;;;34.18;17.22;100174.19;104659;1253;100047;-85
2023/06/07 10:47:26;;;;;;;9.80;2.90;;;;;;;33.71;18.17;100182.48;104667;1253;95951;-86
2023/06/07 10:49:55;;;;;;;5.10;2.80;;;;;;;33.34;18.66;100182.35;104665;1253;100479;-85
2023/06/07 10:52:22;;;;;;;5.30;3.00;;;;;;;33.08;19.09;100172.52;104530;1253;137740;-87
2023/06/07 10:54:50;;;;;;;11.50;3.10;;;;;;;33.20;19.26;100173.15;104699;1253;103525;-86
2023/06/07 10:57:36;;;;;;;8.10;3.30;;;;;;;33.23;18.98;100173.95;104529;1255;139032;-86
2023/06/07 11:00:28;;;;;;;9.20;3.20;;;;;;;32.92;19.21;100170.02;104653;1254;95938;-85
2023/06/07 11:03:26;;;;;;;11.20;2.90;;;;;;;32.50;19.57;100171.76;104572;1253;138354;-87
2023/06/07 11:06:08;;;;;;;8.40;2.90;;;;;;;32.22;19.86;100171.12;104633;1253;95928;-86
2023/06/07 11:08:40;;;;;;;9.90;3.10;;;;;;;31.96;19.90;100172.10;104540;1254;137808;-86
2023/06/07 11:11:53;;;;;;;8.10;2.90;;;;;;;31.78;20.33;100167.27;104615;1253;107509;-88
2023/06/07 11:14:20;;;;;;;9.00;3.00;;;;;;;31.75;20.56;100171.89;104650;1253;95896;-86
2023/06/07 11:16:47;;;;;;;8.40;2.80;;;;;;;31.88;20.64;100171.10;104510;1253;137754;-86